createdAt,value
2023-05-19T00:00:51.457Z,76.36
2023-05-19T00:03:21.598Z,78.73
2023-05-19T00:05:48.826Z,77.91
2023-05-19T00:08:19.034Z,78.06
2023-05-19T00:10:45.921Z,78.28
2023-05-19T00:13:12.727Z,79.50
2023-05-19T00:15:40.033Z,79.51
2023-05-19T00:18:08.915Z,79.13
2023-05-19T00:20:35.407Z,79.13
2023-05-19T00:23:01.841Z,79.92
2023-05-19T00:25:28.337Z,79.31
2023-05-19T00:27:54.686Z,80.17
2023-05-19T00:30:22.848Z,81.30
2023-05-19T00:32:49.355Z,80.37
2023-05-19T00:35:16.566Z,82.06
2023-05-19T00:37:42.889Z,81.88
2023-05-19T00:40:10.136Z,83.40
2023-05-19T00:42:36.756Z,85.49
2023-05-19T00:45:03.312Z,87.13
2023-05-19T00:47:29.837Z,87.04
2023-05-19T00:49:56.271Z,87.62
2023-05-19T00:52:23.046Z,87.79
2023-05-19T00:54:51.339Z,88.23
2023-05-19T00:57:18.030Z,89.00
2023-05-19T00:59:44.582Z,88.40
2023-05-19T01:02:11.189Z,89.27
2023-05-19T01:04:41.718Z,89.64
2023-05-19T01:07:08.306Z,89.32
2023-05-19T01:09:34.795Z,89.66
2023-05-19T01:12:01.463Z,90.13
2023-05-19T01:14:28.735Z,89.70
2023-05-19T01:17:15.033Z,88.37
2023-05-19T01:19:56.337Z,88.54
2023-05-19T01:22:34.343Z,89.57
2023-05-19T01:25:31.855Z,90.00
2023-05-19T01:28:27.055Z,91.24
2023-05-19T01:30:55.490Z,91.36
2023-05-19T01:33:24.211Z,91.73
2023-05-19T01:35:51.626Z,90.97
2023-05-19T01:38:20.176Z,91.23
2023-05-19T01:40:47.601Z,92.04
2023-05-19T01:43:18.767Z,92.92
2023-05-19T01:45:45.477Z,92.89
2023-05-19T01:48:13.232Z,93.55
2023-05-19T01:50:41.296Z,93.41
2023-05-19T01:53:08.075Z,94.24
2023-05-19T01:55:40.515Z,93.97
2023-05-19T01:58:17.385Z,94.30
2023-05-19T02:01:11.133Z,93.50
2023-05-19T02:03:53.616Z,92.85
2023-05-19T02:06:32.840Z,92.34
2023-05-19T02:09:15.336Z,91.65
2023-05-19T02:12:06.052Z,91.86
2023-05-19T02:14:56.973Z,90.84
2023-05-19T02:17:23.548Z,90.46
2023-05-19T02:19:50.739Z,90.57
2023-05-19T02:22:17.077Z,91.00
2023-05-19T02:24:44.990Z,91.22
2023-05-19T02:27:11.425Z,91.25
2023-05-19T02:29:37.797Z,91.54
2023-05-19T02:32:04.528Z,91.73
2023-05-19T02:34:31.403Z,91.37
2023-05-19T02:36:57.788Z,91.38
2023-05-19T02:39:24.158Z,91.72
2023-05-19T02:41:50.539Z,92.22
2023-05-19T02:44:17.004Z,91.70
2023-05-19T02:46:43.519Z,92.04
2023-05-19T02:49:09.915Z,92.26
2023-05-19T02:51:36.332Z,92.60
2023-05-19T02:54:02.725Z,92.06
2023-05-19T02:56:29.224Z,91.72
2023-05-19T02:58:56.138Z,91.82
2023-05-19T03:01:23.103Z,91.84
2023-05-19T03:03:49.720Z,92.32
2023-05-19T03:06:17.864Z,91.56
2023-05-19T03:08:44.867Z,91.00
2023-05-19T03:11:11.271Z,91.15
2023-05-19T03:13:37.685Z,91.10
2023-05-19T03:16:04.129Z,90.84
2023-05-19T03:18:30.660Z,91.87
2023-05-19T03:20:57.057Z,90.97
2023-05-19T03:23:23.604Z,90.88
2023-05-19T03:25:50.781Z,91.25
2023-05-19T03:28:17.198Z,91.32
2023-05-19T03:30:43.709Z,92.31
2023-05-19T03:33:10.464Z,92.12
2023-05-19T03:35:37.089Z,92.04
2023-05-19T03:38:03.458Z,92.20
2023-05-19T03:40:29.979Z,91.77
2023-05-19T03:42:56.675Z,91.33
2023-05-19T03:45:23.076Z,90.53
2023-05-19T03:47:49.522Z,90.53
2023-05-19T03:50:15.892Z,91.00
2023-05-19T03:52:45.452Z,91.59
2023-05-19T03:55:12.448Z,91.84
2023-05-19T03:57:38.829Z,92.69
2023-05-19T04:00:06.119Z,93.17
2023-05-19T04:02:32.569Z,93.81
2023-05-19T04:04:59.036Z,94.38
2023-05-19T04:07:25.715Z,94.29
2023-05-19T04:09:52.148Z,94.54
2023-05-19T04:12:18.611Z,95.01
2023-05-19T04:14:45.162Z,94.33
2023-05-19T04:17:11.931Z,94.07
2023-05-19T04:19:38.294Z,93.64
2023-05-19T04:22:04.891Z,93.06
2023-05-19T04:24:31.477Z,92.16
2023-05-19T04:27:02.406Z,91.78
2023-05-19T04:29:29.452Z,91.73
2023-05-19T04:31:57.149Z,91.38
2023-05-19T04:34:23.548Z,91.55
2023-05-19T04:36:53.084Z,91.07
2023-05-19T04:39:19.922Z,92.01
2023-05-19T04:41:46.310Z,91.61
2023-05-19T04:44:13.671Z,91.38
2023-05-19T04:46:40.109Z,90.81
2023-05-19T04:49:06.607Z,90.23
2023-05-19T04:51:33.053Z,89.68
2023-05-19T04:53:59.410Z,88.84
2023-05-19T04:56:27.304Z,88.42
2023-05-19T04:58:53.736Z,88.35
2023-05-19T05:01:22.532Z,88.35
2023-05-19T05:03:49.127Z,88.38
2023-05-19T05:06:16.245Z,88.54
2023-05-19T05:08:42.616Z,88.43
2023-05-19T05:11:09.445Z,88.39
2023-05-19T05:13:36.095Z,87.76
2023-05-19T05:16:06.400Z,86.28
2023-05-19T05:18:33.661Z,84.97
2023-05-19T05:21:00.418Z,84.26
2023-05-19T05:23:27.344Z,83.92
2023-05-19T05:25:54.024Z,82.91
2023-05-19T05:28:20.715Z,81.17
2023-05-19T05:30:47.150Z,79.67
2023-05-19T05:33:13.843Z,78.42
2023-05-19T05:35:40.558Z,77.66
2023-05-19T05:38:06.918Z,76.95
2023-05-19T05:40:33.403Z,75.44
2023-05-19T05:42:59.810Z,75.46
2023-05-19T05:45:26.239Z,74.62
2023-05-19T05:47:53.021Z,73.59
2023-05-19T05:50:19.770Z,71.28
2023-05-19T05:52:47.292Z,69.18
2023-05-19T05:55:14.424Z,67.96
2023-05-19T05:57:43.452Z,69.23
2023-05-19T06:00:15.289Z,66.58
2023-05-19T06:02:47.261Z,65.67
2023-05-19T06:05:13.935Z,64.40
2023-05-19T06:07:40.976Z,63.85
2023-05-19T06:10:08.853Z,63.95
2023-05-19T06:12:36.088Z,62.98
2023-05-19T06:15:03.458Z,62.60
2023-05-19T06:17:30.014Z,61.54
2023-05-19T06:19:56.501Z,61.33
2023-05-19T06:22:22.862Z,59.10
2023-05-19T06:24:49.242Z,55.18
2023-05-19T06:27:15.591Z,51.92
2023-05-19T06:29:41.988Z,53.03
2023-05-19T06:32:08.342Z,53.58
2023-05-19T06:34:34.673Z,53.67
2023-05-19T06:37:02.307Z,53.86
2023-05-19T06:39:28.700Z,52.73
2023-05-19T06:41:55.075Z,52.33
2023-05-19T06:44:22.729Z,52.52
2023-05-19T06:46:49.207Z,52.09
2023-05-19T06:49:15.765Z,51.95
2023-05-19T06:51:42.153Z,52.15
2023-05-19T06:54:10.981Z,51.75
2023-05-19T06:56:37.376Z,50.95
2023-05-19T06:59:04.063Z,49.00
2023-05-19T07:01:30.973Z,45.61
2023-05-19T07:03:57.658Z,44.17
2023-05-19T07:06:24.090Z,40.97
2023-05-19T07:08:50.595Z,39.26
2023-05-19T07:11:17.655Z,37.36
2023-05-19T07:13:44.031Z,37.12
2023-05-19T07:16:10.623Z,36.31
2023-05-19T07:18:37.177Z,35.62
2023-05-19T07:21:03.690Z,35.74
2023-05-19T07:23:30.038Z,35.89
2023-05-19T07:25:56.801Z,36.54
2023-05-19T07:28:23.402Z,37.74
2023-05-19T07:30:49.846Z,38.03
2023-05-19T07:33:16.296Z,38.10
2023-05-19T07:35:42.797Z,37.66
2023-05-19T07:38:09.117Z,39.02
2023-05-19T07:40:35.467Z,38.90
2023-05-19T07:43:01.781Z,40.15
2023-05-19T07:45:28.170Z,39.42
2023-05-19T07:47:54.729Z,38.75
2023-05-19T07:50:21.172Z,37.04
2023-05-19T07:52:47.555Z,36.73
2023-05-19T07:55:14.859Z,36.76
2023-05-19T07:57:41.446Z,35.66
2023-05-19T08:00:09.890Z,35.60
2023-05-19T08:02:36.341Z,35.31
2023-05-19T08:05:02.928Z,36.41
2023-05-19T08:07:29.299Z,36.71
2023-05-19T08:09:55.760Z,37.73
2023-05-19T08:12:22.093Z,39.65
2023-05-19T08:14:48.470Z,39.28
2023-05-19T08:17:14.857Z,38.96
2023-05-19T08:19:41.341Z,39.09
2023-05-19T08:22:10.832Z,39.58
2023-05-19T08:24:37.271Z,39.69
2023-05-19T08:27:04.771Z,39.71
2023-05-19T08:29:31.823Z,40.11
2023-05-19T08:31:58.464Z,39.75
2023-05-19T08:34:24.861Z,40.66
2023-05-19T08:36:51.364Z,40.71
2023-05-19T08:39:19.573Z,39.45
2023-05-19T08:41:45.974Z,39.76
2023-05-19T08:44:12.369Z,40.05
2023-05-19T08:46:39.046Z,40.86
2023-05-19T08:49:13.034Z,39.16
2023-05-19T08:52:01.581Z,38.51
2023-05-19T08:54:35.856Z,39.00
2023-05-19T08:57:02.697Z,38.38
2023-05-19T08:59:30.200Z,37.98
2023-05-19T09:01:59.785Z,38.35
2023-05-19T09:04:30.022Z,37.90
2023-05-19T09:06:56.861Z,37.32
2023-05-19T09:09:23.253Z,39.06
2023-05-19T09:11:51.796Z,37.77
2023-05-19T09:14:18.167Z,37.22
2023-05-19T09:16:45.765Z,37.14
2023-05-19T09:19:17.486Z,37.79
2023-05-19T09:21:45.572Z,37.46
2023-05-19T09:24:11.958Z,36.80
2023-05-19T09:26:39.808Z,35.76
2023-05-19T09:29:16.701Z,36.39
2023-05-19T09:31:50.637Z,36.84
2023-05-19T09:34:17.654Z,36.57
2023-05-19T09:36:44.237Z,36.40
2023-05-19T09:39:15.102Z,35.52
2023-05-19T09:41:41.549Z,33.82
2023-05-19T09:44:12.260Z,33.10
2023-05-19T09:46:38.734Z,32.78
2023-05-19T09:49:09.566Z,33.69
2023-05-19T09:51:37.478Z,33.70
2023-05-19T09:54:04.509Z,34.11
2023-05-19T09:56:39.346Z,34.19
2023-05-19T09:59:07.179Z,34.25
2023-05-19T10:01:36.187Z,34.14
2023-05-19T10:04:05.909Z,33.95
2023-05-19T10:06:32.675Z,33.33
2023-05-19T10:09:00.066Z,33.24
2023-05-19T10:11:27.448Z,32.29
2023-05-19T10:13:53.883Z,32.86
2023-05-19T10:16:22.062Z,32.34
2023-05-19T10:18:51.413Z,32.05
2023-05-19T10:21:18.226Z,32.48
2023-05-19T10:23:44.562Z,32.78
2023-05-19T10:26:11.809Z,33.79
2023-05-19T10:28:40.879Z,32.64
2023-05-19T10:31:11.262Z,32.38
2023-05-19T10:34:05.100Z,31.62
2023-05-19T10:36:49.532Z,31.72
2023-05-19T10:39:28.110Z,31.50
2023-05-19T10:42:19.380Z,31.22
2023-05-19T10:44:57.547Z,31.25
2023-05-19T10:47:27.571Z,28.58
2023-05-19T10:49:54.251Z,29.01
2023-05-19T10:52:23.126Z,29.75
2023-05-19T10:54:49.723Z,30.25
2023-05-19T10:57:17.286Z,29.54
2023-05-19T10:59:47.381Z,29.58
2023-05-19T11:02:43.166Z,28.88
2023-05-19T11:05:18.085Z,28.97
2023-05-19T11:07:56.000Z,28.40
2023-05-19T11:10:25.606Z,26.91
2023-05-19T11:12:52.458Z,26.96
2023-05-19T11:15:25.553Z,26.95
2023-05-19T11:17:52.428Z,27.92
2023-05-19T11:20:29.789Z,28.20
2023-05-19T11:23:10.527Z,28.25
2023-05-19T11:25:51.415Z,27.77
2023-05-19T11:28:20.451Z,28.62
2023-05-19T11:30:51.763Z,29.31
2023-05-19T11:33:19.476Z,29.71
2023-05-19T11:35:47.178Z,29.43
2023-05-19T11:38:14.139Z,29.30
2023-05-19T11:40:42.323Z,29.02
2023-05-19T11:43:08.693Z,29.35
2023-05-19T11:45:35.796Z,29.31
2023-05-19T11:48:03.866Z,28.69
2023-05-19T11:50:31.798Z,28.46
2023-05-19T11:53:00.812Z,28.33
2023-05-19T11:55:27.814Z,28.25
2023-05-19T11:58:04.411Z,29.58
2023-05-19T12:00:40.033Z,29.69
2023-05-19T12:03:07.834Z,28.04
2023-05-19T12:05:41.812Z,29.84
2023-05-19T12:08:10.234Z,30.07
2023-05-19T12:10:36.916Z,29.23
2023-05-19T12:13:03.626Z,29.86
2023-05-19T12:15:31.541Z,29.87
2023-05-19T12:18:00.238Z,29.05
2023-05-19T12:20:28.400Z,28.38
2023-05-19T12:22:59.186Z,28.79
2023-05-19T12:25:25.742Z,28.07
2023-05-19T12:27:56.153Z,28.14
2023-05-19T12:30:28.698Z,28.02
2023-05-19T12:32:58.156Z,28.57
2023-05-19T12:35:30.069Z,28.52
2023-05-19T12:37:56.478Z,28.42
2023-05-19T12:40:23.101Z,28.06
2023-05-19T12:42:51.931Z,28.36
2023-05-19T12:45:21.825Z,28.81
2023-05-19T12:47:49.219Z,28.80
2023-05-19T12:50:16.084Z,29.74
2023-05-19T12:52:45.956Z,29.41
2023-05-19T12:55:13.986Z,29.80
2023-05-19T12:57:41.910Z,30.12
2023-05-19T13:00:17.605Z,30.87
2023-05-19T13:03:00.456Z,30.69
2023-05-19T13:05:31.385Z,31.43
2023-05-19T13:07:58.778Z,31.72
2023-05-19T13:10:29.363Z,32.64
2023-05-19T13:12:56.726Z,31.98
2023-05-19T13:15:25.094Z,31.39
2023-05-19T13:17:51.785Z,31.07
2023-05-19T13:20:18.695Z,30.64
2023-05-19T13:22:45.069Z,30.55
2023-05-19T13:25:11.417Z,30.81
2023-05-19T13:27:37.967Z,31.02
2023-05-19T13:30:05.040Z,29.88
2023-05-19T13:32:31.511Z,30.24
2023-05-19T13:34:58.583Z,31.17
2023-05-19T13:37:25.043Z,31.57
2023-05-19T13:39:51.638Z,32.61
2023-05-19T13:42:18.044Z,33.39
2023-05-19T13:44:47.852Z,32.86
2023-05-19T13:47:14.385Z,33.64
2023-05-19T13:49:41.615Z,33.23
2023-05-19T13:52:08.257Z,32.38
2023-05-19T13:54:34.920Z,33.40
2023-05-19T13:57:01.578Z,33.72
2023-05-19T13:59:28.264Z,34.69
2023-05-19T14:01:54.871Z,35.11
2023-05-19T14:04:21.479Z,35.54
2023-05-19T14:06:47.919Z,35.55
2023-05-19T14:09:15.887Z,34.81
2023-05-19T14:11:43.173Z,33.76
2023-05-19T14:14:11.269Z,33.42
2023-05-19T14:16:38.411Z,34.13
2023-05-19T14:19:04.965Z,32.02
2023-05-19T14:21:32.480Z,32.22
2023-05-19T14:23:59.204Z,33.41
2023-05-19T14:26:27.363Z,34.56
2023-05-19T14:28:56.904Z,34.88
2023-05-19T14:31:23.623Z,35.04
2023-05-19T14:33:51.253Z,34.31
2023-05-19T14:36:17.737Z,34.50
2023-05-19T14:38:44.451Z,34.62
2023-05-19T14:41:10.883Z,31.70
2023-05-19T14:43:37.247Z,31.06
2023-05-19T14:46:03.603Z,32.06
2023-05-19T14:48:30.101Z,32.81
2023-05-19T14:50:56.447Z,32.73
2023-05-19T14:53:22.815Z,32.64
2023-05-19T14:55:49.581Z,33.09
2023-05-19T14:58:27.434Z,33.16
2023-05-19T15:00:57.631Z,32.82
2023-05-19T15:03:24.122Z,32.46
2023-05-19T15:05:50.517Z,32.96
2023-05-19T15:08:17.167Z,33.47
2023-05-19T15:10:43.558Z,34.11
2023-05-19T15:13:10.286Z,35.12
2023-05-19T15:15:36.714Z,35.68
2023-05-19T15:18:03.141Z,35.94
2023-05-19T15:20:29.730Z,35.71
2023-05-19T15:22:56.137Z,34.97
2023-05-19T15:25:22.533Z,35.04
2023-05-19T15:27:48.905Z,34.94
2023-05-19T15:30:15.337Z,33.96
2023-05-19T15:32:41.840Z,34.11
2023-05-19T15:35:08.585Z,35.14
2023-05-19T15:37:34.963Z,35.01
2023-05-19T15:40:01.307Z,35.68
2023-05-19T15:42:27.757Z,36.00
2023-05-19T15:44:54.470Z,36.36
2023-05-19T15:47:20.851Z,36.50
2023-05-19T15:49:47.747Z,36.82
2023-05-19T15:52:14.230Z,37.04
2023-05-19T15:54:40.801Z,37.70
2023-05-19T15:57:07.328Z,38.05
2023-05-19T15:59:33.751Z,38.24
2023-05-19T16:02:00.411Z,37.73
2023-05-19T16:04:26.809Z,38.16
2023-05-19T16:06:53.210Z,38.38
2023-05-19T16:09:19.598Z,38.67
2023-05-19T16:11:45.970Z,39.07
2023-05-19T16:14:12.299Z,39.26
2023-05-19T16:16:38.700Z,39.53
2023-05-19T16:19:05.167Z,39.36
2023-05-19T16:21:32.128Z,39.59
2023-05-19T16:23:58.485Z,39.97
2023-05-19T16:26:24.893Z,39.92
2023-05-19T16:28:51.239Z,39.76
2023-05-19T16:31:17.680Z,40.57
2023-05-19T16:33:44.121Z,40.62
2023-05-19T16:36:10.698Z,41.13
2023-05-19T16:38:37.065Z,41.41
2023-05-19T16:41:05.108Z,41.38
2023-05-19T16:43:33.753Z,41.31
2023-05-19T16:46:03.240Z,41.02
2023-05-19T16:48:29.704Z,40.97
2023-05-19T16:50:59.255Z,40.83
2023-05-19T16:53:25.614Z,40.89
2023-05-19T16:55:52.008Z,40.85
2023-05-19T16:58:18.401Z,41.01
2023-05-19T17:00:44.817Z,40.73
2023-05-19T17:03:11.621Z,40.23
2023-05-19T17:05:41.645Z,40.86
2023-05-19T17:08:07.995Z,40.41
2023-05-19T17:10:34.752Z,39.79
2023-05-19T17:13:01.317Z,39.82
2023-05-19T17:15:27.659Z,39.90
2023-05-19T17:17:54.045Z,40.37
2023-05-19T17:20:20.628Z,41.17
2023-05-19T17:22:47.004Z,41.04
2023-05-19T17:25:13.356Z,41.04
2023-05-19T17:27:39.721Z,40.48
2023-05-19T17:30:06.990Z,40.05
2023-05-19T17:32:38.407Z,39.52
2023-05-19T17:35:09.021Z,39.20
2023-05-19T17:37:36.287Z,38.72
2023-05-19T17:40:02.790Z,38.61
2023-05-19T17:42:29.195Z,38.05
2023-05-19T17:44:55.708Z,37.31
2023-05-19T17:47:22.184Z,37.30
2023-05-19T17:49:48.630Z,37.81
2023-05-19T17:52:15.793Z,37.13
2023-05-19T17:54:42.403Z,36.40
2023-05-19T17:57:12.658Z,36.77
2023-05-19T17:59:39.220Z,36.56
2023-05-19T18:02:05.986Z,36.83
2023-05-19T18:04:32.798Z,36.19
2023-05-19T18:07:00.492Z,36.60
2023-05-19T18:09:29.388Z,36.89
2023-05-19T18:11:56.821Z,37.56
2023-05-19T18:14:23.236Z,38.43
2023-05-19T18:16:49.986Z,38.74
2023-05-19T18:19:16.483Z,39.26
2023-05-19T18:21:42.919Z,39.25
2023-05-19T18:24:09.331Z,40.16
2023-05-19T18:26:37.680Z,40.56
2023-05-19T18:29:04.887Z,41.43
2023-05-19T18:31:31.484Z,41.47
2023-05-19T18:33:57.871Z,42.00
2023-05-19T18:36:24.247Z,42.63
2023-05-19T18:38:50.666Z,42.89
2023-05-19T18:41:17.074Z,43.53
2023-05-19T18:43:43.657Z,43.98
2023-05-19T18:46:10.334Z,44.24
2023-05-19T18:48:36.947Z,44.79
2023-05-19T18:51:03.782Z,45.14
2023-05-19T18:53:34.580Z,45.18
2023-05-19T18:56:00.960Z,44.86
2023-05-19T18:58:27.329Z,45.06
2023-05-19T19:00:57.726Z,45.24
2023-05-19T19:03:24.554Z,45.23
2023-05-19T19:05:57.989Z,45.79
2023-05-19T19:08:25.011Z,45.89
2023-05-19T19:10:52.053Z,46.03
2023-05-19T19:13:20.904Z,45.72
2023-05-19T19:15:47.248Z,45.66
2023-05-19T19:18:13.666Z,45.66
2023-05-19T19:20:40.128Z,45.95
2023-05-19T19:23:06.790Z,45.69
2023-05-19T19:25:33.552Z,44.50
2023-05-19T19:28:00.110Z,45.04
2023-05-19T19:30:26.965Z,44.57
2023-05-19T19:32:54.737Z,44.55
2023-05-19T19:35:21.223Z,44.97
2023-05-19T19:37:47.646Z,44.63
2023-05-19T19:40:14.104Z,45.02
2023-05-19T19:42:40.614Z,44.63
2023-05-19T19:45:07.492Z,44.93
2023-05-19T19:47:33.922Z,45.64
2023-05-19T19:50:02.510Z,45.18
2023-05-19T19:52:28.872Z,45.53
2023-05-19T19:54:55.332Z,45.25
2023-05-19T19:57:21.688Z,45.59
2023-05-19T19:59:54.904Z,45.16
2023-05-19T20:02:21.647Z,45.36
2023-05-19T20:04:48.544Z,45.23
2023-05-19T20:07:15.192Z,45.75
2023-05-19T20:09:41.612Z,45.40
2023-05-19T20:12:07.990Z,45.56
2023-05-19T20:14:34.377Z,45.31
2023-05-19T20:17:00.731Z,45.59
2023-05-19T20:19:27.562Z,45.55
2023-05-19T20:21:53.933Z,45.38
2023-05-19T20:24:20.293Z,45.71
2023-05-19T20:26:46.982Z,45.96
2023-05-19T20:29:13.361Z,46.04
2023-05-19T20:31:39.690Z,45.83
2023-05-19T20:34:06.208Z,45.98
2023-05-19T20:36:32.720Z,45.68
2023-05-19T20:38:59.573Z,46.15
2023-05-19T20:41:25.917Z,46.38
2023-05-19T20:43:52.280Z,46.41
2023-05-19T20:46:18.711Z,46.81
2023-05-19T20:48:45.311Z,46.39
2023-05-19T20:51:11.808Z,46.76
2023-05-19T20:53:38.269Z,46.92
2023-05-19T20:56:06.693Z,47.23
2023-05-19T20:58:33.072Z,47.25
2023-05-19T21:00:59.468Z,47.17
2023-05-19T21:03:27.065Z,47.57
2023-05-19T21:05:54.243Z,47.98
2023-05-19T21:08:20.837Z,47.91
2023-05-19T21:10:47.348Z,47.99
2023-05-19T21:13:13.739Z,48.60
2023-05-19T21:15:40.336Z,48.64
2023-05-19T21:18:07.069Z,48.29
2023-05-19T21:20:34.132Z,48.43
2023-05-19T21:23:00.875Z,48.54
2023-05-19T21:25:27.774Z,48.67
2023-05-19T21:27:57.792Z,48.68
2023-05-19T21:30:24.929Z,48.70
2023-05-19T21:32:51.314Z,48.60
2023-05-19T21:35:17.821Z,48.97
2023-05-19T21:37:44.229Z,48.98
2023-05-19T21:40:11.094Z,49.36
2023-05-19T21:42:37.560Z,48.83
2023-05-19T21:45:04.233Z,49.32
2023-05-19T21:47:30.660Z,49.47
2023-05-19T21:49:57.034Z,49.65
2023-05-19T21:52:23.454Z,49.89
2023-05-19T21:54:51.815Z,49.87
2023-05-19T21:57:18.163Z,49.80
2023-05-19T21:59:44.974Z,49.98
2023-05-19T22:02:11.466Z,50.24
2023-05-19T22:04:38.481Z,50.44
2023-05-19T22:07:06.763Z,50.89
2023-05-19T22:09:33.269Z,50.87
2023-05-19T22:11:59.657Z,51.51
2023-05-19T22:14:26.439Z,51.75
2023-05-19T22:16:53.042Z,51.75
2023-05-19T22:19:20.027Z,52.20
2023-05-19T22:21:46.614Z,52.28
2023-05-19T22:24:13.001Z,53.37
2023-05-19T22:26:42.560Z,52.79
2023-05-19T22:29:14.839Z,53.39
2023-05-19T22:31:41.225Z,53.61
2023-05-19T22:34:07.951Z,53.70
2023-05-19T22:36:34.332Z,53.64
2023-05-19T22:39:00.995Z,53.81
2023-05-19T22:41:27.327Z,53.51
2023-05-19T22:43:53.717Z,54.18
2023-05-19T22:46:20.099Z,54.14
2023-05-19T22:48:46.428Z,54.63
2023-05-19T22:51:12.898Z,54.84
2023-05-19T22:53:39.263Z,54.56
2023-05-19T22:56:05.818Z,54.37
2023-05-19T22:58:32.262Z,54.67
2023-05-19T23:00:58.636Z,54.86
2023-05-19T23:03:25.059Z,54.87
2023-05-19T23:05:51.427Z,54.66
2023-05-19T23:08:17.756Z,55.08
2023-05-19T23:10:44.473Z,55.02
2023-05-19T23:13:11.829Z,55.05
2023-05-19T23:15:38.159Z,55.29
2023-05-19T23:18:07.233Z,55.95
2023-05-19T23:20:34.350Z,56.25
2023-05-19T23:23:01.241Z,56.02
2023-05-19T23:25:27.712Z,56.04
2023-05-19T23:27:54.184Z,56.57
2023-05-19T23:30:20.590Z,57.30
2023-05-19T23:32:47.002Z,56.40
2023-05-19T23:35:16.010Z,56.79
2023-05-19T23:37:42.610Z,57.05
2023-05-19T23:40:10.462Z,57.54
2023-05-19T23:42:37.155Z,57.57
2023-05-19T23:45:04.363Z,57.84
2023-05-19T23:47:30.771Z,57.63
2023-05-19T23:49:57.122Z,58.14
2023-05-19T23:52:23.554Z,58.12
2023-05-19T23:54:50.046Z,58.60
2023-05-19T23:57:16.392Z,58.32
2023-05-19T23:59:43.001Z,58.83
